Finlandia — OJPP — position and weather

sailwx.info

Track history (hours):
 
Tides and Currents Weather Stations Pressure Air Temp Water Temp Dewpoint Dewpoint Depression Visibility Wind Speed Wind Dir Waves Ship Positions

Finlandia

Last reported at 2014-Oct-31 11:10 UTC. Time now 2014-Oct-31 13:31 UTC.
Position N 59°50' E 024°47'.

Length 175 m; draft 7 m.

Type: Passenger vessel. MMSI: 230628000.

Date/timePositionNaut miles runAvg speedWind from/ knotsBaromVisibWave heightAir tempDewpointWater temp
2014-Oct-31 11:10N 59°50' E 024°47'1219.3
2014-Oct-31 10:32N 59°38' E 024°40'1111.6
2014-Oct-31 09:33N 59°27' E 024°46'3 3.2
2014-Oct-31 08:34N 59°30' E 024°45'19 1.3
2014-Oct-30 18:33N 59°49' E 024°47'2221.8
2014-Oct-30 17:34N 59°27' E 024°47'0 0.5
2014-Oct-30 16:33N 59°27' E 024°46'1111.3
2014-Oct-30 15:33N 59°38' E 024°40'12 2.9
2014-Oct-30 11:11N 59°50' E 024°47'1219.0
2014-Oct-30 10:33N 59°38' E 024°41'1211.5
2014-Oct-30 09:33N 59°27' E 024°46'3 3.3
2014-Oct-30 08:34N 59°30' E 024°45'1918.7
2014-Oct-30 07:33N 59°49' E 024°47'1919.5
2014-Oct-30 06:34N 60°08' E 024°54'24 2.0
2014-Oct-29 18:33N 59°45' E 024°43'1818.1
2014-Oct-29 17:33N 59°27' E 024°46'0 0.0
2014-Oct-29 16:33N 59°27' E 024°46'1211.6
2014-Oct-29 15:33N 59°38' E 024°40'30 8.6
2014-Oct-29 12:03N 60°07' E 024°54'1019.1
2014-Oct-29 11:30N 59°57' E 024°53'1920.2
2014-Oct-29 10:33N 59°38' E 024°41'1212.0
2014-Oct-29 09:33N 59°27' E 024°46'3 2.8
2014-Oct-29 08:33N 59°30' E 024°45'2120.1
2014-Oct-29 07:31N 59°51' E 024°48'18 1.5
2014-Oct-28 19:31N 60°09' E 024°54'2019.9
2014-Oct-28 18:30N 59°49' E 024°52'2122.4
2014-Oct-28 17:33N 59°28' E 024°46'1 0.9
2014-Oct-28 16:33N 59°27' E 024°46'1110.6
2014-Oct-28 15:33N 59°37' E 024°40'2 0.5
2014-Oct-28 10:33N 59°38' E 024°43'1211.9
2014-Oct-28 09:34N 59°27' E 024°46'3 2.7
2014-Oct-28 08:33N 59°29' E 024°45'17 1.2
2014-Oct-27 18:25N 59°46' E 024°50'1922.7
2014-Oct-27 17:33N 59°27' E 024°47'0 0.5
2014-Oct-27 16:33N 59°27' E 024°46'1110.5
2014-Oct-27 15:34N 59°37' E 024°40'2 0.4
2014-Oct-27 10:33N 59°38' E 024°42'1211.5
2014-Oct-27 09:33N 59°27' E 024°46'1 1.2
2014-Oct-27 08:33N 59°28' E 024°46'1919.0
2014-Oct-27 07:33N 59°47' E 024°46'3 0.2
2014-Oct-26 18:25N 59°44' E 024°48'1820.2
2014-Oct-26 17:33N 59°27' E 024°46'0 0.2
2014-Oct-26 16:33N 59°27' E 024°46'5 4.7
2014-Oct-26 15:33N 59°31' E 024°44'1918.4
2014-Oct-26 14:33N 59°50' E 024°49'13 3.3
2014-Oct-26 10:33N 59°37' E 024°41'1110.2
2014-Oct-26 09:32N 59°27' E 024°46'3 3.0
2014-Oct-26 08:33N 59°30' E 024°45'2019.4
2014-Oct-26 07:32N 59°49' E 024°49'4 0.3
2014-Oct-25 17:23N 59°45' E 024°48'1821.7
2014-Oct-25 16:33N 59°27' E 024°47'1 0.5
2014-Oct-25 15:31N 59°27' E 024°46'1111.3
2014-Oct-25 14:33N 59°37' E 024°40'2 0.3
2014-Oct-25 09:34N 59°38' E 024°42'1110.4
2014-Oct-25 08:28N 59°27' E 024°46'4 3.9
2014-Oct-25 07:33N 59°30' E 024°45'16 1.1
2014-Oct-24 17:26N 59°46' E 024°49'1921.5
2014-Oct-24 16:33N 59°27' E 024°46'0 0.4
2014-Oct-24 15:33N 59°27' E 024°46'1110.9
2014-Oct-24 14:34N 59°37' E 024°40'1 0.3
2014-Oct-24 09:33N 59°38' E 024°42'1110.6
2014-Oct-24 08:30N 59°27' E 024°46'3 3.4
2014-Oct-24 07:34N 59°30' E 024°45'2019.3
2014-Oct-24 06:33N 59°49' E 024°51'5 0.3
2014-Oct-23 17:22N 59°45' E 024°47'1822.3
2014-Oct-23 16:33N 59°27' E 024°47'0 0.4
2014-Oct-23 15:29N 59°27' E 024°46'1212.7
2014-Oct-23 14:34N 59°38' E 024°40'1 0.2
2014-Oct-23 09:33N 59°37' E 024°42'7 3.7
2014-Oct-23 07:33N 59°30' E 024°44'9 0.7
2014-Oct-22 17:34N 59°39' E 024°44'1312.7
2014-Oct-22 16:34N 59°27' E 024°46'0 0.0
2014-Oct-22 15:30N 59°27' E 024°46'1112.2
2014-Oct-22 14:33N 59°38' E 024°40'10 2.2
2014-Oct-22 10:06N 59°46' E 024°50'1221.6
2014-Oct-22 09:34N 59°35' E 024°42'8 8.0
2014-Oct-22 08:31N 59°27' E 024°46'4 3.7
2014-Oct-22 07:33N 59°30' E 024°44'16 1.1
2014-Oct-21 17:33N 59°46' E 024°48'1919.0
2014-Oct-21 16:33N 59°27' E 024°46'0 0.0
2014-Oct-21 15:33N 59°27' E 024°46'1010.2
2014-Oct-21 14:33N 59°36' E 024°40'  
Track history (hours):
 
Tides and Currents Weather Stations Pressure Air Temp Water Temp Dewpoint Dewpoint Depression Visibility Wind Speed Wind Dir Waves Ship Positions

Finlandia

Last reported at 2014-Oct-31 11:10 UTC. Time now 2014-Oct-31 13:31 UTC.
Position N 59°50' E 024°47'.

Length 175 m; draft 7 m.

Type: Passenger vessel. MMSI: 230628000.

Date/timePositionNaut miles runAvg speedWind from/ knotsBaromVisibWave heightAir tempDewpointWater temp
2014-Oct-31 11:10N 59°50' E 024°47'1219.3
2014-Oct-31 10:32N 59°38' E 024°40'1111.6
2014-Oct-31 09:33N 59°27' E 024°46'3 3.2
2014-Oct-31 08:34N 59°30' E 024°45'19 1.3
2014-Oct-30 18:33N 59°49' E 024°47'2221.8
2014-Oct-30 17:34N 59°27' E 024°47'0 0.5
2014-Oct-30 16:33N 59°27' E 024°46'1111.3
2014-Oct-30 15:33N 59°38' E 024°40'12 2.9
2014-Oct-30 11:11N 59°50' E 024°47'1219.0
2014-Oct-30 10:33N 59°38' E 024°41'1211.5
2014-Oct-30 09:33N 59°27' E 024°46'3 3.3
2014-Oct-30 08:34N 59°30' E 024°45'1918.7
2014-Oct-30 07:33N 59°49' E 024°47'1919.5
2014-Oct-30 06:34N 60°08' E 024°54'24 2.0
2014-Oct-29 18:33N 59°45' E 024°43'1818.1
2014-Oct-29 17:33N 59°27' E 024°46'0 0.0
2014-Oct-29 16:33N 59°27' E 024°46'1211.6
2014-Oct-29 15:33N 59°38' E 024°40'30 8.6
2014-Oct-29 12:03N 60°07' E 024°54'1019.1
2014-Oct-29 11:30N 59°57' E 024°53'1920.2
2014-Oct-29 10:33N 59°38' E 024°41'1212.0
2014-Oct-29 09:33N 59°27' E 024°46'3 2.8
2014-Oct-29 08:33N 59°30' E 024°45'2120.1
2014-Oct-29 07:31N 59°51' E 024°48'18 1.5
2014-Oct-28 19:31N 60°09' E 024°54'2019.9
2014-Oct-28 18:30N 59°49' E 024°52'2122.4
2014-Oct-28 17:33N 59°28' E 024°46'1 0.9
2014-Oct-28 16:33N 59°27' E 024°46'1110.6
2014-Oct-28 15:33N 59°37' E 024°40'2 0.5
2014-Oct-28 10:33N 59°38' E 024°43'1211.9
2014-Oct-28 09:34N 59°27' E 024°46'3 2.7
2014-Oct-28 08:33N 59°29' E 024°45'17 1.2
2014-Oct-27 18:25N 59°46' E 024°50'1922.7
2014-Oct-27 17:33N 59°27' E 024°47'0 0.5
2014-Oct-27 16:33N 59°27' E 024°46'1110.5
2014-Oct-27 15:34N 59°37' E 024°40'2 0.4
2014-Oct-27 10:33N 59°38' E 024°42'1211.5
2014-Oct-27 09:33N 59°27' E 024°46'1 1.2
2014-Oct-27 08:33N 59°28' E 024°46'1919.0
2014-Oct-27 07:33N 59°47' E 024°46'3 0.2
2014-Oct-26 18:25N 59°44' E 024°48'1820.2
2014-Oct-26 17:33N 59°27' E 024°46'0 0.2
2014-Oct-26 16:33N 59°27' E 024°46'5 4.7
2014-Oct-26 15:33N 59°31' E 024°44'1918.4
2014-Oct-26 14:33N 59°50' E 024°49'13 3.3
2014-Oct-26 10:33N 59°37' E 024°41'1110.2
2014-Oct-26 09:32N 59°27' E 024°46'3 3.0
2014-Oct-26 08:33N 59°30' E 024°45'2019.4
2014-Oct-26 07:32N 59°49' E 024°49'4 0.3
2014-Oct-25 17:23N 59°45' E 024°48'1821.7
2014-Oct-25 16:33N 59°27' E 024°47'1 0.5
2014-Oct-25 15:31N 59°27' E 024°46'1111.3
2014-Oct-25 14:33N 59°37' E 024°40'2 0.3
2014-Oct-25 09:34N 59°38' E 024°42'1110.4
2014-Oct-25 08:28N 59°27' E 024°46'4 3.9
2014-Oct-25 07:33N 59°30' E 024°45'16 1.1
2014-Oct-24 17:26N 59°46' E 024°49'1921.5
2014-Oct-24 16:33N 59°27' E 024°46'0 0.4
2014-Oct-24 15:33N 59°27' E 024°46'1110.9
2014-Oct-24 14:34N 59°37' E 024°40'1 0.3
2014-Oct-24 09:33N 59°38' E 024°42'1110.6
2014-Oct-24 08:30N 59°27' E 024°46'3 3.4
2014-Oct-24 07:34N 59°30' E 024°45'2019.3
2014-Oct-24 06:33N 59°49' E 024°51'5 0.3
2014-Oct-23 17:22N 59°45' E 024°47'1822.3
2014-Oct-23 16:33N 59°27' E 024°47'0 0.4
2014-Oct-23 15:29N 59°27' E 024°46'1212.7
2014-Oct-23 14:34N 59°38' E 024°40'1 0.2
2014-Oct-23 09:33N 59°37' E 024°42'7 3.7
2014-Oct-23 07:33N 59°30' E 024°44'9 0.7
2014-Oct-22 17:34N 59°39' E 024°44'1312.7
2014-Oct-22 16:34N 59°27' E 024°46'0 0.0
2014-Oct-22 15:30N 59°27' E 024°46'1112.2
2014-Oct-22 14:33N 59°38' E 024°40'10 2.2
2014-Oct-22 10:06N 59°46' E 024°50'1221.6
2014-Oct-22 09:34N 59°35' E 024°42'8 8.0
2014-Oct-22 08:31N 59°27' E 024°46'4 3.7
2014-Oct-22 07:33N 59°30' E 024°44'16 1.1
2014-Oct-21 17:33N 59°46' E 024°48'1919.0
2014-Oct-21 16:33N 59°27' E 024°46'0 0.0
2014-Oct-21 15:33N 59°27' E 024°46'1010.2
2014-Oct-21 14:33N 59°36' E 024°40'  

Dump ship's entire track history